LIPELDSP

Guest
Details From LIPE - BOLOGNA
To LDSP - SPLIT
Flight Number -
Tags generated
Created
Modified
Stats Distance 225 nm / 416 km
Max Altitude 25,700 ft / 7,833 m
Waypoints 4
Social Downloads 1
Likes 0
Share VATSIM

Download

Looking for another format? Having issues loading an existing format? Contact us
Advertisement - Login to hide

Notes

Basic altitude profile: - Ascent Rate: 2500ft/min - Ascent Speed: 250kts - Cruise Altitude: 35000ft - Cruise Speed: 420kts - Descent Rate: 1500ft/min - Descent Speed: 250kts Options: - Use NATs: yes - Use PACOTS: yes - Use low airways: yes - Use high airways: yes

Route

LIPE BUSER IBENI LDSP

ID Type Via Altitude Latitude Longitude Leg Dist Tot Dist Heading (true) Name
O LIPE APT - 0 ft / 0 m 44.53545˚ 11.28866˚ - 0 nm - BOLOGNA
BUSER FIX - 25,700 ft / 7,833 m 44.10667˚ 13.64889˚ 104 nm 104 nm 103° / 105° -
IBENI FIX - 22,900 ft / 6,980 m 44.01417˚ 13.92167˚ 13 nm 117 nm 115° / 115° -
O LDSP APT - 0 ft / 0 m 43.53903˚ 16.29811˚ 106 nm 224 nm 105° / 106° SPLIT

Altitude Profile

Advertisement - Login to hide

Weather


0- 5 10 15 20 25 30 35+ Temperature / ° C

Clouds and Precipitation
Forecast for 2018-01-23 06:00 UTC. Updated 41 minutes ago

Ground ~20,000 ft ~40,000 ft Winds

LIPE

Details ICAO LIPE (BLQ)
Name BOLOGNA
Region Italy
Timezone Europe/Rome (UTC+1.0)
Stats Elevation 123 ft / 37 m (AMSL)
Location 44.535446° 11.288662°
Runways 1
Magnetic Variation 2.930° E

METAR

LIPE 230150Z 22005KT CAVOK 02/M01 Q1017

Decode

TAF

TAF LIPE 222300Z 2300/2324 VRB05KT 8000 FEW040 TEMPO 2300/2306 4000 BR

Decode

Departure Runways

ID Width Length Bearing (true) Bearing (mag) Surface Threshold Offset Overrun Length
12 148 ft / 45 m 9,185 ft / 2,800 m 116.78° 113.85° Asphalt 1,007 ft / 307 m 0 ft / 0 m
30 148 ft / 45 m 9,185 ft / 2,800 m 296.81° 293.88° Asphalt 1,188 ft / 362 m 200 ft / 61 m

LDSP

Details ICAO LDSP (SPU)
Name SPLIT
Region Croatia
Timezone Europe/Zagreb (UTC+1.0)
Stats Elevation 79 ft / 24 m (AMSL)
Location 43.539026° 16.298112°
Runways 1
Magnetic Variation 3.849° E

METAR

LDSP 230200Z AUTO VRB01KT CAVOK 05/M03 Q1016

Decode

TAF

TAF LDSP 222325Z 2300/2400 35006KT CAVOK TX13/2313Z TN02/2323Z BECMG 2313/2315 03010KT PROB30 TEMPO 2314/2316 03015G30KT

Decode

Destination Runways

ID Width Length Bearing (true) Bearing (mag) Surface Threshold Offset Overrun Length
05 148 ft / 45 m 8,357 ft / 2,547 m 52.48° 48.63° Asphalt 0 ft / 0 m 76 ft / 23 m
23 148 ft / 45 m 8,357 ft / 2,547 m 232.50° 228.65° Asphalt 525 ft / 160 m 820 ft / 250 m

Approach Navaids

Runway Type Ident Frequency Range Bearing (true) Bearing (mag) Slope Elevation
05 Localiser IST 110.50 MHz 25 nm / 46 km 52.57° 48.72° - 69 ft / 21 m (AMSL)
05 Glidescope IST 110.50 MHz 25 nm / 46 km 52.57° 48.72° 3.00° 52 ft / 16 m (AMSL)

Popular Alternatives